sensor_id;sensor_type;location;lat;lon;timestamp;temperature;humidity
15257;DHT22;7731;50.720;6.912;2023-11-21T00:02:21;9.40;99.90
15257;DHT22;7731;50.720;6.912;2023-11-21T00:04:52;9.40;99.90
15257;DHT22;7731;50.720;6.912;2023-11-21T00:07:27;9.40;99.90
15257;DHT22;7731;50.720;6.912;2023-11-21T00:09:57;9.30;99.90
15257;DHT22;7731;50.720;6.912;2023-11-21T00:12:28;9.30;99.90
15257;DHT22;7731;50.720;6.912;2023-11-21T00:14:59;9.30;99.90
15257;DHT22;7731;50.720;6.912;2023-11-21T00:17:29;9.30;99.90
15257;DHT22;7731;50.720;6.912;2023-11-21T00:19:59;9.20;99.90
15257;DHT22;7731;50.720;6.912;2023-11-21T00:22:36;9.30;99.90
15257;DHT22;7731;50.720;6.912;2023-11-21T00:25:09;9.30;99.90
15257;DHT22;7731;50.720;6.912;2023-11-21T00:27:41;9.30;99.90
15257;DHT22;7731;50.720;6.912;2023-11-21T00:30:13;9.30;99.90
15257;DHT22;7731;50.720;6.912;2023-11-21T00:32:44;9.50;99.90
15257;DHT22;7731;50.720;6.912;2023-11-21T00:35:14;9.40;99.90
15257;DHT22;7731;50.720;6.912;2023-11-21T00:37:47;9.30;99.90
15257;DHT22;7731;50.720;6.912;2023-11-21T00:40:18;9.20;99.90
15257;DHT22;7731;50.720;6.912;2023-11-21T00:42:49;9.30;99.90
15257;DHT22;7731;50.720;6.912;2023-11-21T00:45:19;9.30;99.90
15257;DHT22;7731;50.720;6.912;2023-11-21T00:47:50;9.20;99.90
15257;DHT22;7731;50.720;6.912;2023-11-21T00:50:21;9.10;99.90
15257;DHT22;7731;50.720;6.912;2023-11-21T00:52:54;9.20;99.90
15257;DHT22;7731;50.720;6.912;2023-11-21T00:55:24;9.20;99.90
15257;DHT22;7731;50.720;6.912;2023-11-21T00:57:55;9.20;99.90
15257;DHT22;7731;50.720;6.912;2023-11-21T01:00:25;9.10;99.90
15257;DHT22;7731;50.720;6.912;2023-11-21T01:02:55;9.20;99.90
15257;DHT22;7731;50.720;6.912;2023-11-21T01:05:26;9.10;99.90
15257;DHT22;7731;50.720;6.912;2023-11-21T01:07:59;9.10;99.90
15257;DHT22;7731;50.720;6.912;2023-11-21T01:10:29;9.00;99.90
15257;DHT22;7731;50.720;6.912;2023-11-21T01:13:02;9.00;99.90
15257;DHT22;7731;50.720;6.912;2023-11-21T01:15:34;9.10;99.90
15257;DHT22;7731;50.720;6.912;2023-11-21T01:18:05;9.10;99.90
15257;DHT22;7731;50.720;6.912;2023-11-21T01:20:35;9.00;99.90
15257;DHT22;7731;50.720;6.912;2023-11-21T01:23:11;9.00;99.90
15257;DHT22;7731;50.720;6.912;2023-11-21T01:25:46;9.20;99.90
15257;DHT22;7731;50.720;6.912;2023-11-21T01:28:19;9.30;99.90
15257;DHT22;7731;50.720;6.912;2023-11-21T01:30:49;9.30;99.90
15257;DHT22;7731;50.720;6.912;2023-11-21T01:33:24;9.30;99.90
15257;DHT22;7731;50.720;6.912;2023-11-21T01:35:55;9.20;99.90
15257;DHT22;7731;50.720;6.912;2023-11-21T01:38:29;9.40;99.90
15257;DHT22;7731;50.720;6.912;2023-11-21T01:40:59;9.40;99.90
15257;DHT22;7731;50.720;6.912;2023-11-21T01:43:31;9.40;99.90
15257;DHT22;7731;50.720;6.912;2023-11-21T01:46:01;9.50;99.90
15257;DHT22;7731;50.720;6.912;2023-11-21T01:48:33;9.40;99.90
15257;DHT22;7731;50.720;6.912;2023-11-21T01:51:06;9.40;99.90
15257;DHT22;7731;50.720;6.912;2023-11-21T01:53:39;9.40;99.90
15257;DHT22;7731;50.720;6.912;2023-11-21T01:56:11;9.40;99.90
15257;DHT22;7731;50.720;6.912;2023-11-21T01:58:42;9.50;99.90
15257;DHT22;7731;50.720;6.912;2023-11-21T02:01:14;9.50;99.90
15257;DHT22;7731;50.720;6.912;2023-11-21T02:03:47;9.60;99.90
15257;DHT22;7731;50.720;6.912;2023-11-21T02:06:21;9.50;99.90
15257;DHT22;7731;50.720;6.912;2023-11-21T02:08:55;9.60;99.90
15257;DHT22;7731;50.720;6.912;2023-11-21T02:11:26;9.70;99.90
15257;DHT22;7731;50.720;6.912;2023-11-21T02:13:59;9.60;99.90
15257;DHT22;7731;50.720;6.912;2023-11-21T02:16:30;9.60;99.90
15257;DHT22;7731;50.720;6.912;2023-11-21T02:19:01;9.70;99.90
15257;DHT22;7731;50.720;6.912;2023-11-21T02:21:33;9.70;99.90
15257;DHT22;7731;50.720;6.912;2023-11-21T02:24:08;9.50;99.90
15257;DHT22;7731;50.720;6.912;2023-11-21T02:26:38;9.50;99.90
15257;DHT22;7731;50.720;6.912;2023-11-21T02:29:09;9.50;99.90
15257;DHT22;7731;50.720;6.912;2023-11-21T02:31:40;9.50;99.90
15257;DHT22;7731;50.720;6.912;2023-11-21T02:34:15;9.60;99.90
15257;DHT22;7731;50.720;6.912;2023-11-21T02:36:46;9.60;99.90
15257;DHT22;7731;50.720;6.912;2023-11-21T02:39:22;9.40;99.90
15257;DHT22;7731;50.720;6.912;2023-11-21T02:41:53;9.40;99.90
15257;DHT22;7731;50.720;6.912;2023-11-21T02:44:23;9.60;99.90
15257;DHT22;7731;50.720;6.912;2023-11-21T02:46:53;9.60;99.90
15257;DHT22;7731;50.720;6.912;2023-11-21T02:49:27;9.50;99.90
15257;DHT22;7731;50.720;6.912;2023-11-21T02:51:58;9.40;99.90
15257;DHT22;7731;50.720;6.912;2023-11-21T02:54:30;9.30;99.90
15257;DHT22;7731;50.720;6.912;2023-11-21T02:57:04;9.30;99.90
15257;DHT22;7731;50.720;6.912;2023-11-21T02:59:35;9.30;99.90
15257;DHT22;7731;50.720;6.912;2023-11-21T03:02:05;9.30;99.90
15257;DHT22;7731;50.720;6.912;2023-11-21T03:04:39;9.40;99.90
15257;DHT22;7731;50.720;6.912;2023-11-21T03:07:10;9.30;99.90
15257;DHT22;7731;50.720;6.912;2023-11-21T03:09:43;9.40;99.90
15257;DHT22;7731;50.720;6.912;2023-11-21T03:12:14;9.40;99.90
15257;DHT22;7731;50.720;6.912;2023-11-21T03:14:44;9.30;99.90
15257;DHT22;7731;50.720;6.912;2023-11-21T03:17:15;9.20;99.90
15257;DHT22;7731;50.720;6.912;2023-11-21T03:19:45;9.10;99.90
15257;DHT22;7731;50.720;6.912;2023-11-21T03:22:16;9.00;99.90
15257;DHT22;7731;50.720;6.912;2023-11-21T03:24:49;8.90;99.90
15257;DHT22;7731;50.720;6.912;2023-11-21T03:27:19;8.80;99.90
15257;DHT22;7731;50.720;6.912;2023-11-21T03:29:49;8.70;99.90
15257;DHT22;7731;50.720;6.912;2023-11-21T03:32:22;8.80;99.90
15257;DHT22;7731;50.720;6.912;2023-11-21T03:34:56;8.80;99.90
15257;DHT22;7731;50.720;6.912;2023-11-21T03:37:29;8.70;99.90
15257;DHT22;7731;50.720;6.912;2023-11-21T03:40:06;8.70;99.90
15257;DHT22;7731;50.720;6.912;2023-11-21T03:42:40;8.70;99.90
15257;DHT22;7731;50.720;6.912;2023-11-21T03:45:10;8.60;99.90
15257;DHT22;7731;50.720;6.912;2023-11-21T03:47:41;8.60;99.90
15257;DHT22;7731;50.720;6.912;2023-11-21T03:50:12;8.70;99.90
15257;DHT22;7731;50.720;6.912;2023-11-21T03:52:42;8.70;99.90
15257;DHT22;7731;50.720;6.912;2023-11-21T03:55:15;8.70;99.90
15257;DHT22;7731;50.720;6.912;2023-11-21T03:57:46;8.60;99.90
15257;DHT22;7731;50.720;6.912;2023-11-21T04:00:17;8.60;99.90
15257;DHT22;7731;50.720;6.912;2023-11-21T04:02:48;8.60;99.90
15257;DHT22;7731;50.720;6.912;2023-11-21T04:05:20;8.70;99.90
15257;DHT22;7731;50.720;6.912;2023-11-21T04:07:54;8.80;99.90
15257;DHT22;7731;50.720;6.912;2023-11-21T04:10:27;8.80;99.90
15257;DHT22;7731;50.720;6.912;2023-11-21T04:12:58;8.90;99.90
15257;DHT22;7731;50.720;6.912;2023-11-21T04:15:28;9.00;99.90
15257;DHT22;7731;50.720;6.912;2023-11-21T04:17:59;9.10;99.90
15257;DHT22;7731;50.720;6.912;2023-11-21T04:20:30;9.10;99.90
15257;DHT22;7731;50.720;6.912;2023-11-21T04:23:00;9.10;99.90
15257;DHT22;7731;50.720;6.912;2023-11-21T04:25:35;9.10;99.90
15257;DHT22;7731;50.720;6.912;2023-11-21T04:28:05;9.10;99.90
15257;DHT22;7731;50.720;6.912;2023-11-21T04:30:35;9.00;99.90
15257;DHT22;7731;50.720;6.912;2023-11-21T04:33:06;8.90;99.90
15257;DHT22;7731;50.720;6.912;2023-11-21T04:35:39;9.00;99.90
15257;DHT22;7731;50.720;6.912;2023-11-21T04:38:10;8.90;99.90
15257;DHT22;7731;50.720;6.912;2023-11-21T04:40:43;9.00;99.90
15257;DHT22;7731;50.720;6.912;2023-11-21T04:43:16;9.10;99.90
15257;DHT22;7731;50.720;6.912;2023-11-21T04:45:46;9.00;99.90
15257;DHT22;7731;50.720;6.912;2023-11-21T04:48:18;8.90;99.90
15257;DHT22;7731;50.720;6.912;2023-11-21T04:50:49;8.80;99.90
15257;DHT22;7731;50.720;6.912;2023-11-21T04:53:19;8.80;99.90
15257;DHT22;7731;50.720;6.912;2023-11-21T04:55:52;8.70;99.90
15257;DHT22;7731;50.720;6.912;2023-11-21T04:58:23;8.80;99.90
15257;DHT22;7731;50.720;6.912;2023-11-21T05:00:53;8.80;99.90
15257;DHT22;7731;50.720;6.912;2023-11-21T05:03:23;8.80;99.90
15257;DHT22;7731;50.720;6.912;2023-11-21T05:05:54;8.70;99.90
15257;DHT22;7731;50.720;6.912;2023-11-21T05:08:24;8.60;99.90
15257;DHT22;7731;50.720;6.912;2023-11-21T05:10:57;8.60;99.90
15257;DHT22;7731;50.720;6.912;2023-11-21T05:13:28;8.60;99.90
15257;DHT22;7731;50.720;6.912;2023-11-21T05:15:58;8.60;99.90
15257;DHT22;7731;50.720;6.912;2023-11-21T05:18:31;8.60;99.90
15257;DHT22;7731;50.720;6.912;2023-11-21T05:21:03;8.50;99.90
15257;DHT22;7731;50.720;6.912;2023-11-21T05:23:37;8.50;99.90
15257;DHT22;7731;50.720;6.912;2023-11-21T05:26:10;8.50;99.90
15257;DHT22;7731;50.720;6.912;2023-11-21T05:28:42;8.50;99.90
15257;DHT22;7731;50.720;6.912;2023-11-21T05:31:13;8.60;99.90
15257;DHT22;7731;50.720;6.912;2023-11-21T05:33:43;8.60;99.90
15257;DHT22;7731;50.720;6.912;2023-11-21T05:36:14;8.50;99.90
15257;DHT22;7731;50.720;6.912;2023-11-21T05:38:45;8.50;99.90
15257;DHT22;7731;50.720;6.912;2023-11-21T05:41:18;8.50;99.90
15257;DHT22;7731;50.720;6.912;2023-11-21T05:43:48;8.60;99.90
15257;DHT22;7731;50.720;6.912;2023-11-21T05:46:19;8.60;99.90
15257;DHT22;7731;50.720;6.912;2023-11-21T05:48:49;8.70;99.90
15257;DHT22;7731;50.720;6.912;2023-11-21T05:51:19;8.70;99.90
15257;DHT22;7731;50.720;6.912;2023-11-21T05:53:50;8.60;99.90
15257;DHT22;7731;50.720;6.912;2023-11-21T05:56:25;8.60;99.90
15257;DHT22;7731;50.720;6.912;2023-11-21T05:58:55;8.60;99.90
15257;DHT22;7731;50.720;6.912;2023-11-21T06:01:29;8.60;99.90
15257;DHT22;7731;50.720;6.912;2023-11-21T06:03:59;8.60;99.90
15257;DHT22;7731;50.720;6.912;2023-11-21T06:06:30;8.60;99.90
15257;DHT22;7731;50.720;6.912;2023-11-21T06:09:01;8.50;99.90
15257;DHT22;7731;50.720;6.912;2023-11-21T06:11:35;8.50;99.90
15257;DHT22;7731;50.720;6.912;2023-11-21T06:14:06;8.50;99.90
15257;DHT22;7731;50.720;6.912;2023-11-21T06:16:38;8.50;99.90
15257;DHT22;7731;50.720;6.912;2023-11-21T06:19:08;8.70;99.90
15257;DHT22;7731;50.720;6.912;2023-11-21T06:21:37;8.60;99.90
15257;DHT22;7731;50.720;6.912;2023-11-21T06:24:08;8.70;99.90
15257;DHT22;7731;50.720;6.912;2023-11-21T06:26:41;8.70;99.90
15257;DHT22;7731;50.720;6.912;2023-11-21T06:29:11;8.70;99.90
15257;DHT22;7731;50.720;6.912;2023-11-21T06:31:42;8.80;99.90
15257;DHT22;7731;50.720;6.912;2023-11-21T06:34:14;8.70;99.90
15257;DHT22;7731;50.720;6.912;2023-11-21T06:36:44;8.70;99.90
15257;DHT22;7731;50.720;6.912;2023-11-21T06:39:14;8.80;99.90
15257;DHT22;7731;50.720;6.912;2023-11-21T06:41:47;8.70;99.90
15257;DHT22;7731;50.720;6.912;2023-11-21T06:44:18;8.70;99.90
15257;DHT22;7731;50.720;6.912;2023-11-21T06:46:49;8.70;99.90
15257;DHT22;7731;50.720;6.912;2023-11-21T06:49:19;8.60;99.90
15257;DHT22;7731;50.720;6.912;2023-11-21T06:51:50;8.80;99.90
15257;DHT22;7731;50.720;6.912;2023-11-21T06:54:22;8.80;99.90
15257;DHT22;7731;50.720;6.912;2023-11-21T06:56:55;8.80;99.90
15257;DHT22;7731;50.720;6.912;2023-11-21T06:59:28;8.70;99.90
15257;DHT22;7731;50.720;6.912;2023-11-21T07:02:01;8.80;99.90
15257;DHT22;7731;50.720;6.912;2023-11-21T07:04:33;8.70;99.90
15257;DHT22;7731;50.720;6.912;2023-11-21T07:07:04;8.80;99.90
15257;DHT22;7731;50.720;6.912;2023-11-21T07:09:36;8.90;99.90
15257;DHT22;7731;50.720;6.912;2023-11-21T07:12:09;8.90;99.90
15257;DHT22;7731;50.720;6.912;2023-11-21T07:14:41;8.80;99.90
15257;DHT22;7731;50.720;6.912;2023-11-21T07:17:12;8.80;99.90
15257;DHT22;7731;50.720;6.912;2023-11-21T07:19:39;8.90;99.90
15257;DHT22;7731;50.720;6.912;2023-11-21T07:22:10;8.80;99.90
15257;DHT22;7731;50.720;6.912;2023-11-21T07:24:42;8.80;99.90
15257;DHT22;7731;50.720;6.912;2023-11-21T07:27:15;8.90;99.90
15257;DHT22;7731;50.720;6.912;2023-11-21T07:29:48;8.90;99.90
15257;DHT22;7731;50.720;6.912;2023-11-21T07:32:18;9.00;99.90
15257;DHT22;7731;50.720;6.912;2023-11-21T07:34:49;9.00;99.90
15257;DHT22;7731;50.720;6.912;2023-11-21T07:37:19;9.10;99.90
15257;DHT22;7731;50.720;6.912;2023-11-21T07:39:50;9.10;99.90
15257;DHT22;7731;50.720;6.912;2023-11-21T07:42:26;9.00;99.90
15257;DHT22;7731;50.720;6.912;2023-11-21T07:44:56;8.90;99.90
15257;DHT22;7731;50.720;6.912;2023-11-21T07:47:29;8.90;99.90
15257;DHT22;7731;50.720;6.912;2023-11-21T07:50:03;8.90;99.90
15257;DHT22;7731;50.720;6.912;2023-11-21T07:52:35;8.90;99.90
15257;DHT22;7731;50.720;6.912;2023-11-21T07:55:06;9.10;99.90
15257;DHT22;7731;50.720;6.912;2023-11-21T07:57:41;9.10;99.90
15257;DHT22;7731;50.720;6.912;2023-11-21T08:00:13;9.10;99.90
15257;DHT22;7731;50.720;6.912;2023-11-21T08:02:44;9.10;99.90
15257;DHT22;7731;50.720;6.912;2023-11-21T08:05:14;9.00;99.90
15257;DHT22;7731;50.720;6.912;2023-11-21T08:07:58;9.00;99.90
15257;DHT22;7731;50.720;6.912;2023-11-21T08:10:28;9.10;99.90
15257;DHT22;7731;50.720;6.912;2023-11-21T08:13:01;9.40;99.90
15257;DHT22;7731;50.720;6.912;2023-11-21T08:15:34;9.70;99.90
15257;DHT22;7731;50.720;6.912;2023-11-21T08:18:05;9.50;99.90
15257;DHT22;7731;50.720;6.912;2023-11-21T08:20:38;9.40;99.90
15257;DHT22;7731;50.720;6.912;2023-11-21T08:23:08;9.30;99.90
15257;DHT22;7731;50.720;6.912;2023-11-21T08:25:38;9.30;99.90
15257;DHT22;7731;50.720;6.912;2023-11-21T08:28:12;9.30;99.90
15257;DHT22;7731;50.720;6.912;2023-11-21T08:30:43;9.30;99.90
15257;DHT22;7731;50.720;6.912;2023-11-21T08:33:14;9.30;99.90
15257;DHT22;7731;50.720;6.912;2023-11-21T08:35:44;9.30;99.90
15257;DHT22;7731;50.720;6.912;2023-11-21T08:38:18;9.40;99.90
15257;DHT22;7731;50.720;6.912;2023-11-21T08:40:48;9.50;99.90
15257;DHT22;7731;50.720;6.912;2023-11-21T08:43:21;9.50;99.90
15257;DHT22;7731;50.720;6.912;2023-11-21T08:45:52;9.40;99.90
15257;DHT22;7731;50.720;6.912;2023-11-21T08:48:22;9.40;99.90
15257;DHT22;7731;50.720;6.912;2023-11-21T08:50:57;9.50;99.90
15257;DHT22;7731;50.720;6.912;2023-11-21T08:53:27;9.60;99.90
15257;DHT22;7731;50.720;6.912;2023-11-21T08:55:58;9.60;99.90
15257;DHT22;7731;50.720;6.912;2023-11-21T08:58:31;9.60;99.90
15257;DHT22;7731;50.720;6.912;2023-11-21T09:01:05;9.60;99.90
15257;DHT22;7731;50.720;6.912;2023-11-21T09:03:35;9.60;99.90
15257;DHT22;7731;50.720;6.912;2023-11-21T09:06:08;9.80;99.90
15257;DHT22;7731;50.720;6.912;2023-11-21T09:08:39;9.90;99.90
15257;DHT22;7731;50.720;6.912;2023-11-21T09:11:10;9.90;99.90
15257;DHT22;7731;50.720;6.912;2023-11-21T09:13:43;10.00;99.90
15257;DHT22;7731;50.720;6.912;2023-11-21T09:16:14;10.20;99.90
15257;DHT22;7731;50.720;6.912;2023-11-21T09:18:47;10.10;99.90
15257;DHT22;7731;50.720;6.912;2023-11-21T09:21:18;10.10;99.90
15257;DHT22;7731;50.720;6.912;2023-11-21T09:23:51;10.30;99.90
15257;DHT22;7731;50.720;6.912;2023-11-21T09:26:57;10.30;99.90
15257;DHT22;7731;50.720;6.912;2023-11-21T09:29:33;10.40;99.90
15257;DHT22;7731;50.720;6.912;2023-11-21T09:32:04;10.50;99.90
15257;DHT22;7731;50.720;6.912;2023-11-21T09:34:38;10.60;99.90
15257;DHT22;7731;50.720;6.912;2023-11-21T09:37:09;10.90;99.90
15257;DHT22;7731;50.720;6.912;2023-11-21T09:39:39;10.90;99.90
15257;DHT22;7731;50.720;6.912;2023-11-21T09:42:13;10.90;99.90
15257;DHT22;7731;50.720;6.912;2023-11-21T09:44:56;11.00;99.90
15257;DHT22;7731;50.720;6.912;2023-11-21T09:47:35;11.00;99.90
15257;DHT22;7731;50.720;6.912;2023-11-21T09:50:09;11.20;99.90
15257;DHT22;7731;50.720;6.912;2023-11-21T09:52:49;11.20;99.90
15257;DHT22;7731;50.720;6.912;2023-11-21T09:55:28;11.00;99.90
15257;DHT22;7731;50.720;6.912;2023-11-21T09:58:03;11.20;99.90
15257;DHT22;7731;50.720;6.912;2023-11-21T10:00:40;11.30;99.90
15257;DHT22;7731;50.720;6.912;2023-11-21T10:03:12;11.30;99.90
15257;DHT22;7731;50.720;6.912;2023-11-21T10:05:43;11.20;99.90
15257;DHT22;7731;50.720;6.912;2023-11-21T10:08:16;11.00;99.90
15257;DHT22;7731;50.720;6.912;2023-11-21T10:10:53;11.00;99.90
15257;DHT22;7731;50.720;6.912;2023-11-21T10:13:24;11.00;99.90
15257;DHT22;7731;50.720;6.912;2023-11-21T10:16:00;11.20;99.90
15257;DHT22;7731;50.720;6.912;2023-11-21T10:18:33;11.20;99.90
15257;DHT22;7731;50.720;6.912;2023-11-21T10:21:07;11.20;99.90
15257;DHT22;7731;50.720;6.912;2023-11-21T10:23:39;11.20;99.90
15257;DHT22;7731;50.720;6.912;2023-11-21T10:26:12;11.00;99.90
15257;DHT22;7731;50.720;6.912;2023-11-21T10:28:57;11.00;99.90
15257;DHT22;7731;50.720;6.912;2023-11-21T10:31:31;11.00;99.90
15257;DHT22;7731;50.720;6.912;2023-11-21T10:34:13;11.00;99.90
15257;DHT22;7731;50.720;6.912;2023-11-21T10:36:47;10.90;99.90
15257;DHT22;7731;50.720;6.912;2023-11-21T10:39:19;10.70;99.90
15257;DHT22;7731;50.720;6.912;2023-11-21T10:41:51;10.70;99.90
15257;DHT22;7731;50.720;6.912;2023-11-21T10:44:21;10.90;99.90
15257;DHT22;7731;50.720;6.912;2023-11-21T10:47:03;10.80;99.90
15257;DHT22;7731;50.720;6.912;2023-11-21T10:49:34;10.70;99.90
15257;DHT22;7731;50.720;6.912;2023-11-21T10:52:10;10.60;99.90
15257;DHT22;7731;50.720;6.912;2023-11-21T10:54:46;10.60;99.90
15257;DHT22;7731;50.720;6.912;2023-11-21T10:57:19;10.60;99.90
15257;DHT22;7731;50.720;6.912;2023-11-21T10:59:54;10.50;99.90
15257;DHT22;7731;50.720;6.912;2023-11-21T11:02:26;10.60;99.90
15257;DHT22;7731;50.720;6.912;2023-11-21T11:05:00;10.60;99.90
15257;DHT22;7731;50.720;6.912;2023-11-21T11:07:34;10.60;99.90
15257;DHT22;7731;50.720;6.912;2023-11-21T11:10:08;10.60;99.90
15257;DHT22;7731;50.720;6.912;2023-11-21T11:12:43;10.70;99.90
15257;DHT22;7731;50.720;6.912;2023-11-21T11:15:17;10.80;99.90
15257;DHT22;7731;50.720;6.912;2023-11-21T11:17:52;11.00;99.90
15257;DHT22;7731;50.720;6.912;2023-11-21T11:20:30;11.00;99.90
15257;DHT22;7731;50.720;6.912;2023-11-21T11:23:22;11.10;99.90
15257;DHT22;7731;50.720;6.912;2023-11-21T11:26:17;11.20;99.90
15257;DHT22;7731;50.720;6.912;2023-11-21T11:29:03;11.30;99.90
15257;DHT22;7731;50.720;6.912;2023-11-21T11:31:55;11.20;99.90
15257;DHT22;7731;50.720;6.912;2023-11-21T11:34:44;11.00;99.90
15257;DHT22;7731;50.720;6.912;2023-11-21T11:37:20;11.10;99.90
15257;DHT22;7731;50.720;6.912;2023-11-21T11:39:51;11.30;99.90
15257;DHT22;7731;50.720;6.912;2023-11-21T11:42:22;11.30;99.90
15257;DHT22;7731;50.720;6.912;2023-11-21T11:44:53;11.20;99.90
15257;DHT22;7731;50.720;6.912;2023-11-21T11:47:26;11.20;99.90
15257;DHT22;7731;50.720;6.912;2023-11-21T11:50:05;11.10;99.90
15257;DHT22;7731;50.720;6.912;2023-11-21T11:52:41;11.10;99.90
15257;DHT22;7731;50.720;6.912;2023-11-21T11:55:14;11.10;99.90
15257;DHT22;7731;50.720;6.912;2023-11-21T11:57:46;11.10;99.90
15257;DHT22;7731;50.720;6.912;2023-11-21T12:00:19;11.10;99.90
15257;DHT22;7731;50.720;6.912;2023-11-21T12:02:53;11.00;99.90
15257;DHT22;7731;50.720;6.912;2023-11-21T12:05:31;10.90;99.90
15257;DHT22;7731;50.720;6.912;2023-11-21T12:08:04;10.90;99.90
15257;DHT22;7731;50.720;6.912;2023-11-21T12:10:37;10.80;99.90
15257;DHT22;7731;50.720;6.912;2023-11-21T12:13:10;10.80;99.90
15257;DHT22;7731;50.720;6.912;2023-11-21T12:15:42;10.70;99.90
15257;DHT22;7731;50.720;6.912;2023-11-21T12:18:13;11.00;99.90
15257;DHT22;7731;50.720;6.912;2023-11-21T12:20:46;11.10;99.90
15257;DHT22;7731;50.720;6.912;2023-11-21T12:23:18;10.90;99.90
15257;DHT22;7731;50.720;6.912;2023-11-21T12:25:48;11.00;99.90
15257;DHT22;7731;50.720;6.912;2023-11-21T12:28:19;10.80;99.90
15257;DHT22;7731;50.720;6.912;2023-11-21T12:30:50;11.10;99.90
15257;DHT22;7731;50.720;6.912;2023-11-21T12:33:34;11.00;99.90
15257;DHT22;7731;50.720;6.912;2023-11-21T12:36:08;10.90;99.90
15257;DHT22;7731;50.720;6.912;2023-11-21T12:38:38;10.90;99.90
15257;DHT22;7731;50.720;6.912;2023-11-21T12:41:09;10.90;99.90
15257;DHT22;7731;50.720;6.912;2023-11-21T12:43:40;11.00;99.90
15257;DHT22;7731;50.720;6.912;2023-11-21T12:46:11;10.70;99.90
15257;DHT22;7731;50.720;6.912;2023-11-21T12:48:45;10.80;99.90
15257;DHT22;7731;50.720;6.912;2023-11-21T12:51:21;10.90;99.90
15257;DHT22;7731;50.720;6.912;2023-11-21T12:53:52;11.00;99.90
15257;DHT22;7731;50.720;6.912;2023-11-21T12:56:22;11.10;99.90
15257;DHT22;7731;50.720;6.912;2023-11-21T12:58:54;11.20;99.90
15257;DHT22;7731;50.720;6.912;2023-11-21T13:01:26;11.20;99.90
15257;DHT22;7731;50.720;6.912;2023-11-21T13:03:57;11.30;99.90
15257;DHT22;7731;50.720;6.912;2023-11-21T13:06:32;11.30;99.90
15257;DHT22;7731;50.720;6.912;2023-11-21T13:09:08;11.20;99.90
15257;DHT22;7731;50.720;6.912;2023-11-21T13:11:43;11.10;99.90
15257;DHT22;7731;50.720;6.912;2023-11-21T13:14:13;11.00;99.90
15257;DHT22;7731;50.720;6.912;2023-11-21T13:16:45;11.10;99.90
15257;DHT22;7731;50.720;6.912;2023-11-21T13:19:15;11.30;99.90
15257;DHT22;7731;50.720;6.912;2023-11-21T13:21:52;11.40;99.90
15257;DHT22;7731;50.720;6.912;2023-11-21T13:24:22;11.50;99.90
15257;DHT22;7731;50.720;6.912;2023-11-21T13:26:53;11.40;99.90
15257;DHT22;7731;50.720;6.912;2023-11-21T13:29:24;11.40;99.90
15257;DHT22;7731;50.720;6.912;2023-11-21T13:31:56;11.40;99.90
15257;DHT22;7731;50.720;6.912;2023-11-21T13:34:28;11.40;99.90
15257;DHT22;7731;50.720;6.912;2023-11-21T13:37:03;11.30;99.90
15257;DHT22;7731;50.720;6.912;2023-11-21T13:39:37;11.30;99.90
15257;DHT22;7731;50.720;6.912;2023-11-21T13:42:18;11.40;99.90
15257;DHT22;7731;50.720;6.912;2023-11-21T13:44:56;11.20;99.90
15257;DHT22;7731;50.720;6.912;2023-11-21T13:47:27;11.10;99.90
15257;DHT22;7731;50.720;6.912;2023-11-21T13:50:00;11.10;99.90
15257;DHT22;7731;50.720;6.912;2023-11-21T13:52:33;11.20;99.90
15257;DHT22;7731;50.720;6.912;2023-11-21T13:55:04;11.30;99.90
15257;DHT22;7731;50.720;6.912;2023-11-21T13:57:41;11.50;99.90
15257;DHT22;7731;50.720;6.912;2023-11-21T14:00:17;11.50;99.90
15257;DHT22;7731;50.720;6.912;2023-11-21T14:03:00;11.40;99.90
15257;DHT22;7731;50.720;6.912;2023-11-21T14:05:36;11.30;99.90
15257;DHT22;7731;50.720;6.912;2023-11-21T14:08:10;11.30;99.90
15257;DHT22;7731;50.720;6.912;2023-11-21T14:10:43;11.10;99.90
15257;DHT22;7731;50.720;6.912;2023-11-21T14:13:17;11.00;99.90
15257;DHT22;7731;50.720;6.912;2023-11-21T14:15:50;11.00;99.90
15257;DHT22;7731;50.720;6.912;2023-11-21T14:18:26;11.00;99.90
15257;DHT22;7731;50.720;6.912;2023-11-21T14:21:05;11.00;99.90
15257;DHT22;7731;50.720;6.912;2023-11-21T14:23:40;11.10;99.90
15257;DHT22;7731;50.720;6.912;2023-11-21T14:26:13;11.20;99.90
15257;DHT22;7731;50.720;6.912;2023-11-21T14:28:44;11.10;99.90
15257;DHT22;7731;50.720;6.912;2023-11-21T14:31:16;11.00;99.90
15257;DHT22;7731;50.720;6.912;2023-11-21T14:33:46;11.00;99.90
15257;DHT22;7731;50.720;6.912;2023-11-21T14:36:17;10.80;99.90
15257;DHT22;7731;50.720;6.912;2023-11-21T14:38:49;10.70;99.90
15257;DHT22;7731;50.720;6.912;2023-11-21T14:41:20;10.70;99.90
15257;DHT22;7731;50.720;6.912;2023-11-21T14:43:52;10.70;99.90
15257;DHT22;7731;50.720;6.912;2023-11-21T14:46:24;10.90;99.90
15257;DHT22;7731;50.720;6.912;2023-11-21T14:48:55;10.90;99.90
15257;DHT22;7731;50.720;6.912;2023-11-21T14:51:44;10.90;99.90
15257;DHT22;7731;50.720;6.912;2023-11-21T14:54:31;10.80;99.90
15257;DHT22;7731;50.720;6.912;2023-11-21T14:57:13;10.80;99.90
15257;DHT22;7731;50.720;6.912;2023-11-21T14:59:46;10.70;99.90
15257;DHT22;7731;50.720;6.912;2023-11-21T15:02:19;10.70;99.90
15257;DHT22;7731;50.720;6.912;2023-11-21T15:04:50;10.80;99.90
15257;DHT22;7731;50.720;6.912;2023-11-21T15:07:28;10.70;99.90
15257;DHT22;7731;50.720;6.912;2023-11-21T15:09:59;10.50;99.90
15257;DHT22;7731;50.720;6.912;2023-11-21T15:12:30;10.50;99.90
15257;DHT22;7731;50.720;6.912;2023-11-21T15:15:01;10.60;99.90
15257;DHT22;7731;50.720;6.912;2023-11-21T15:17:31;10.70;99.90
15257;DHT22;7731;50.720;6.912;2023-11-21T15:20:02;10.80;99.90
15257;DHT22;7731;50.720;6.912;2023-11-21T15:22:38;10.70;99.90
15257;DHT22;7731;50.720;6.912;2023-11-21T15:25:14;10.70;99.90
15257;DHT22;7731;50.720;6.912;2023-11-21T15:27:44;10.60;99.90
15257;DHT22;7731;50.720;6.912;2023-11-21T15:30:17;10.60;99.90
15257;DHT22;7731;50.720;6.912;2023-11-21T15:32:51;10.60;99.90
15257;DHT22;7731;50.720;6.912;2023-11-21T15:35:22;10.50;99.90
15257;DHT22;7731;50.720;6.912;2023-11-21T15:37:54;10.60;99.90
15257;DHT22;7731;50.720;6.912;2023-11-21T15:40:29;10.50;99.90
15257;DHT22;7731;50.720;6.912;2023-11-21T15:43:02;10.50;99.90
15257;DHT22;7731;50.720;6.912;2023-11-21T15:45:34;10.50;99.90
15257;DHT22;7731;50.720;6.912;2023-11-21T15:48:06;10.60;99.90
15257;DHT22;7731;50.720;6.912;2023-11-21T15:50:37;10.60;99.90
15257;DHT22;7731;50.720;6.912;2023-11-21T15:53:09;10.50;99.90
15257;DHT22;7731;50.720;6.912;2023-11-21T15:55:42;10.50;99.90
15257;DHT22;7731;50.720;6.912;2023-11-21T15:58:12;10.50;99.90
15257;DHT22;7731;50.720;6.912;2023-11-21T16:00:42;10.70;99.90
15257;DHT22;7731;50.720;6.912;2023-11-21T16:03:13;10.60;99.90
15257;DHT22;7731;50.720;6.912;2023-11-21T16:05:44;10.50;99.90
15257;DHT22;7731;50.720;6.912;2023-11-21T16:08:15;10.60;99.90
15257;DHT22;7731;50.720;6.912;2023-11-21T16:10:49;10.60;99.90
15257;DHT22;7731;50.720;6.912;2023-11-21T16:13:20;10.40;99.90
15257;DHT22;7731;50.720;6.912;2023-11-21T16:15:50;10.30;99.90
15257;DHT22;7731;50.720;6.912;2023-11-21T16:18:21;10.30;99.90
15257;DHT22;7731;50.720;6.912;2023-11-21T16:20:51;10.40;99.90
15257;DHT22;7731;50.720;6.912;2023-11-21T16:23:22;10.40;99.90
15257;DHT22;7731;50.720;6.912;2023-11-21T16:25:55;10.40;99.90
15257;DHT22;7731;50.720;6.912;2023-11-21T16:28:26;10.40;99.90
15257;DHT22;7731;50.720;6.912;2023-11-21T16:30:56;10.40;99.90